createdAt,value
2018-11-13T00:00:35.040Z,7.20
2018-11-13T00:03:10.199Z,6.63
2018-11-13T00:05:44.635Z,8.10
2018-11-13T00:08:19.866Z,7.43
2018-11-13T00:10:54.976Z,6.33
2018-11-13T00:13:30.343Z,6.90
2018-11-13T00:16:05.332Z,6.30
2018-11-13T00:18:40.757Z,7.37
2018-11-13T00:21:15.140Z,7.23
2018-11-13T00:23:50.188Z,7.07
2018-11-13T00:26:26.035Z,6.67
2018-11-13T00:29:00.493Z,8.03
2018-11-13T00:31:35.745Z,6.93
2018-11-13T00:34:11.102Z,6.60
2018-11-13T00:36:45.520Z,5.93
2018-11-13T00:39:20.418Z,8.10
2018-11-13T00:41:54.252Z,7.00
2018-11-13T00:44:29.286Z,6.93
2018-11-13T00:47:03.639Z,7.10
2018-11-13T00:49:38.043Z,7.23
2018-11-13T00:52:12.466Z,7.03
2018-11-13T00:54:47.015Z,5.83
2018-11-13T00:57:21.411Z,6.13
2018-11-13T00:59:55.984Z,7.50
2018-11-13T01:02:30.296Z,5.40
2018-11-13T01:05:07.187Z,6.10
2018-11-13T01:07:45.669Z,6.50
2018-11-13T01:10:21.938Z,6.10
2018-11-13T01:12:57.036Z,7.17
2018-11-13T01:15:32.883Z,5.63
2018-11-13T01:18:08.242Z,5.60
2018-11-13T01:20:42.745Z,6.20
2018-11-13T01:23:17.531Z,6.03
2018-11-13T01:25:54.694Z,5.83
2018-11-13T01:28:29.156Z,6.00
2018-11-13T01:31:03.419Z,5.73
2018-11-13T01:33:38.480Z,5.90
2018-11-13T01:36:12.843Z,5.97
2018-11-13T01:38:47.283Z,5.47
2018-11-13T01:41:21.574Z,5.97
2018-11-13T01:43:56.907Z,5.70
2018-11-13T01:46:31.440Z,5.27
2018-11-13T01:49:05.913Z,6.40
2018-11-13T01:51:40.501Z,5.30
2018-11-13T01:54:15.185Z,6.87
2018-11-13T01:56:49.533Z,6.40
2018-11-13T01:59:24.141Z,6.10
2018-11-13T02:01:58.535Z,5.47
2018-11-13T02:04:33.415Z,5.87
2018-11-13T02:07:08.490Z,5.93
2018-11-13T02:09:43.747Z,5.50
2018-11-13T02:12:18.731Z,6.10
2018-11-13T02:14:54.643Z,7.40
2018-11-13T02:17:30.091Z,5.80
2018-11-13T02:20:06.335Z,5.70
2018-11-13T02:22:41.135Z,6.80
2018-11-13T02:25:17.274Z,5.70
2018-11-13T02:29:17.788Z,6.03
2018-11-13T02:31:52.324Z,5.37
2018-11-13T02:34:27.456Z,5.87
2018-11-13T02:37:01.840Z,5.77
2018-11-13T02:39:36.276Z,5.27
2018-11-13T02:42:17.921Z,5.93
2018-11-13T02:44:52.987Z,5.77
2018-11-13T02:47:27.575Z,5.90
2018-11-13T02:50:02.099Z,6.33
2018-11-13T02:52:37.365Z,5.83
2018-11-13T02:55:12.305Z,6.50
2018-11-13T02:57:47.257Z,5.17
2018-11-13T03:00:22.199Z,5.70
2018-11-13T03:02:56.689Z,5.43
2018-11-13T03:05:31.291Z,6.07
2018-11-13T03:08:06.311Z,5.13
2018-11-13T03:10:41.558Z,5.90
2018-11-13T03:13:15.911Z,6.77
2018-11-13T03:15:50.832Z,4.93
2018-11-13T03:18:26.136Z,6.53
2018-11-13T03:21:00.643Z,5.70
2018-11-13T03:23:35.960Z,5.63
2018-11-13T03:26:11.150Z,6.23
2018-11-13T03:28:45.626Z,5.60
2018-11-13T03:31:20.663Z,6.10
2018-11-13T03:33:55.657Z,5.27
2018-11-13T03:36:30.491Z,5.63
2018-11-13T03:39:06.900Z,5.50
2018-11-13T03:41:41.524Z,5.37
2018-11-13T03:44:16.671Z,5.30
2018-11-13T03:46:51.276Z,5.63
2018-11-13T03:49:25.664Z,5.40
2018-11-13T03:52:00.567Z,4.83
2018-11-13T03:54:35.936Z,5.73
2018-11-13T03:57:10.449Z,5.50
2018-11-13T03:59:44.999Z,4.73
2018-11-13T04:02:19.359Z,4.90
2018-11-13T04:04:53.875Z,5.10
2018-11-13T04:07:28.887Z,5.13
2018-11-13T04:10:04.011Z,5.30
2018-11-13T04:12:39.840Z,5.70
2018-11-13T04:15:16.545Z,5.03
2018-11-13T04:17:51.548Z,5.17
2018-11-13T04:20:26.024Z,5.33
2018-11-13T04:23:00.539Z,5.27
2018-11-13T04:25:36.060Z,6.03
2018-11-13T04:28:11.023Z,5.60
2018-11-13T04:30:45.625Z,5.13
2018-11-13T04:33:22.364Z,5.03
2018-11-13T04:35:56.815Z,5.40
2018-11-13T04:38:31.171Z,5.07
2018-11-13T04:41:07.791Z,5.40
2018-11-13T04:43:43.363Z,4.00
2018-11-13T04:46:18.759Z,5.70
2018-11-13T04:48:53.114Z,5.30
2018-11-13T04:51:28.216Z,5.40
2018-11-13T04:54:03.245Z,5.10
2018-11-13T04:56:38.013Z,6.00
2018-11-13T04:59:17.455Z,5.43
2018-11-13T05:01:52.261Z,5.70
2018-11-13T05:04:26.607Z,5.17
2018-11-13T05:07:01.216Z,5.80
2018-11-13T05:09:36.585Z,5.07
2018-11-13T05:12:11.027Z,5.40
2018-11-13T05:14:45.323Z,4.83
2018-11-13T05:17:20.843Z,5.57
2018-11-13T05:19:55.239Z,5.20
2018-11-13T05:22:29.624Z,5.50
2018-11-13T05:25:06.235Z,5.47
2018-11-13T05:27:41.643Z,5.77
2018-11-13T05:30:18.679Z,5.77
2018-11-13T05:32:53.143Z,5.03
2018-11-13T05:35:28.339Z,5.13
2018-11-13T05:38:02.674Z,5.60
2018-11-13T05:40:39.980Z,5.70
2018-11-13T05:43:15.168Z,5.20
2018-11-13T05:45:50.234Z,5.30
2018-11-13T05:48:24.954Z,5.53
2018-11-13T05:51:00.349Z,5.43
2018-11-13T05:53:35.883Z,5.27
2018-11-13T05:56:10.467Z,5.97
2018-11-13T05:58:45.220Z,6.13
2018-11-13T06:01:19.531Z,5.90
2018-11-13T06:03:54.186Z,6.33
2018-11-13T06:06:29.119Z,7.10
2018-11-13T06:09:06.278Z,4.80
2018-11-13T06:11:41.436Z,5.63
2018-11-13T06:14:15.986Z,7.23
2018-11-13T06:16:51.032Z,5.50
2018-11-13T06:19:26.160Z,4.73
2018-11-13T06:22:00.693Z,6.27
2018-11-13T06:24:35.765Z,5.90
2018-11-13T06:27:11.065Z,5.93
2018-11-13T06:29:46.333Z,5.67
2018-11-13T06:32:20.655Z,6.10
2018-11-13T06:34:56.143Z,5.10
2018-11-13T06:37:30.611Z,5.30
2018-11-13T06:40:06.625Z,5.20
2018-11-13T06:42:42.263Z,5.33
2018-11-13T06:45:21.385Z,6.10
2018-11-13T06:47:56.420Z,5.17
2018-11-13T06:50:31.245Z,5.33
2018-11-13T06:53:06.408Z,6.27
2018-11-13T06:55:43.520Z,5.90
2018-11-13T06:58:17.867Z,5.93
2018-11-13T07:00:52.155Z,5.80
2018-11-13T07:03:26.599Z,5.43
2018-11-13T07:06:01.045Z,5.60
2018-11-13T07:08:36.052Z,6.40
2018-11-13T07:11:11.254Z,6.50
2018-11-13T07:16:26.792Z,6.60
2018-11-13T07:19:02.175Z,6.97
2018-11-13T07:21:36.586Z,8.07
2018-11-13T07:24:11.901Z,7.13
2018-11-13T07:26:46.983Z,7.17
2018-11-13T07:29:21.510Z,6.10
2018-11-13T07:31:55.908Z,5.40
2018-11-13T07:34:31.207Z,6.00
2018-11-13T07:37:05.823Z,5.67
2018-11-13T07:39:40.368Z,5.60
2018-11-13T07:42:19.224Z,5.73
2018-11-13T07:44:54.260Z,5.40
2018-11-13T07:47:28.780Z,5.90
2018-11-13T07:50:03.283Z,6.03
2018-11-13T07:52:39.015Z,6.87
2018-11-13T07:55:14.616Z,5.83
2018-11-13T07:57:48.964Z,6.80
2018-11-13T08:00:24.600Z,7.33
2018-11-13T08:03:09.335Z,10.40
2018-11-13T08:05:43.910Z,11.70
2018-11-13T08:08:19.436Z,9.70
2018-11-13T08:10:54.483Z,8.07
2018-11-13T08:13:29.116Z,6.30
2018-11-13T08:16:08.317Z,6.33
2018-11-13T08:18:43.410Z,7.20
2018-11-13T08:21:17.681Z,6.67
2018-11-13T08:23:52.740Z,5.30
2018-11-13T08:26:27.797Z,5.77
2018-11-13T08:29:02.298Z,6.00
2018-11-13T08:31:36.571Z,5.67
2018-11-13T08:34:11.771Z,6.90
2018-11-13T08:36:46.124Z,5.33
2018-11-13T08:39:20.607Z,6.37
2018-11-13T08:41:55.759Z,6.43
2018-11-13T08:44:30.976Z,6.73
2018-11-13T08:47:05.587Z,6.03
2018-11-13T08:49:40.158Z,5.77
2018-11-13T08:52:15.951Z,6.37
2018-11-13T08:54:50.586Z,6.10
2018-11-13T08:57:25.007Z,6.40
2018-11-13T08:59:59.371Z,7.00
2018-11-13T09:02:33.870Z,7.93
2018-11-13T09:05:10.041Z,7.20
2018-11-13T09:07:44.331Z,7.70
2018-11-13T09:10:19.626Z,7.90
2018-11-13T09:12:53.976Z,9.00
2018-11-13T09:15:29.062Z,8.23
2018-11-13T09:18:04.526Z,8.30
2018-11-13T09:20:41.416Z,6.90
2018-11-13T09:23:15.836Z,7.00
2018-11-13T09:25:55.711Z,7.77
2018-11-13T09:28:30.115Z,7.00
2018-11-13T09:31:04.727Z,8.07
2018-11-13T09:33:39.637Z,8.50
2018-11-13T09:36:13.942Z,7.33
2018-11-13T09:38:48.347Z,7.80
2018-11-13T09:41:23.343Z,7.00
2018-11-13T09:43:58.680Z,7.50
2018-11-13T09:46:33.149Z,7.30
2018-11-13T09:49:07.582Z,7.67
2018-11-13T09:51:43.002Z,7.77
2018-11-13T09:54:18.371Z,7.67
2018-11-13T09:56:52.896Z,9.03
2018-11-13T09:59:27.480Z,9.70
2018-11-13T10:02:02.570Z,8.53
2018-11-13T10:04:37.215Z,8.03
2018-11-13T10:07:11.137Z,6.80
2018-11-13T10:09:46.525Z,7.33
2018-11-13T10:12:20.975Z,7.10
2018-11-13T10:15:02.660Z,7.20
2018-11-13T10:17:38.177Z,6.70
2018-11-13T10:20:14.461Z,7.00
2018-11-13T10:22:50.310Z,8.33
2018-11-13T10:25:25.336Z,9.40
2018-11-13T10:28:00.647Z,10.27
2018-11-13T10:30:35.021Z,8.03
2018-11-13T10:33:09.488Z,8.40
2018-11-13T10:35:44.620Z,6.93
2018-11-13T10:38:19.067Z,7.00
2018-11-13T10:40:54.583Z,6.63
2018-11-13T10:43:29.755Z,8.20
2018-11-13T10:46:05.516Z,6.93
2018-11-13T10:48:39.855Z,6.90
2018-11-13T10:51:15.039Z,8.33
2018-11-13T10:53:50.023Z,6.77
2018-11-13T10:56:24.564Z,7.03
2018-11-13T10:58:59.071Z,7.43
2018-11-13T11:01:38.804Z,7.43
2018-11-13T11:04:18.776Z,6.57
2018-11-13T11:06:53.210Z,6.67
2018-11-13T11:09:36.156Z,6.60
2018-11-13T11:12:10.519Z,6.40
2018-11-13T11:14:45.123Z,6.50
2018-11-13T11:17:20.560Z,5.90
2018-11-13T11:19:54.957Z,6.13
2018-11-13T11:22:29.490Z,5.73
2018-11-13T11:25:05.694Z,5.90
2018-11-13T11:27:40.605Z,6.07
2018-11-13T11:30:16.137Z,5.70
2018-11-13T11:32:50.532Z,5.33
2018-11-13T11:35:25.536Z,4.77
2018-11-13T11:38:00.083Z,4.80
2018-11-13T11:40:41.800Z,4.47
2018-11-13T11:43:16.725Z,3.80
2018-11-13T11:45:52.122Z,4.37
2018-11-13T11:48:26.465Z,3.80
2018-11-13T11:51:01.376Z,3.83
2018-11-13T11:53:36.563Z,3.13
2018-11-13T11:56:10.992Z,3.00
2018-11-13T11:58:45.347Z,3.80
2018-11-13T12:01:19.751Z,2.53
2018-11-13T12:03:54.147Z,3.17
2018-11-13T12:06:28.653Z,3.17
2018-11-13T12:09:03.065Z,3.10
2018-11-13T12:11:38.927Z,2.50
2018-11-13T12:14:13.839Z,3.10
2018-11-13T12:16:49.031Z,2.50
2018-11-13T12:19:24.176Z,2.50
2018-11-13T12:21:58.543Z,3.20
2018-11-13T12:24:33.829Z,2.60
2018-11-13T12:27:09.432Z,2.80
2018-11-13T12:29:43.919Z,2.07
2018-11-13T12:32:18.459Z,2.70
2018-11-13T12:34:53.390Z,2.13
2018-11-13T12:37:28.119Z,1.60
2018-11-13T12:40:02.544Z,3.00
2018-11-13T12:42:37.547Z,1.83
2018-11-13T12:45:13.135Z,2.37
2018-11-13T12:47:47.644Z,2.30
2018-11-13T12:50:33.024Z,2.20
2018-11-13T12:53:08.355Z,2.10
2018-11-13T12:55:43.054Z,4.07
2018-11-13T12:58:17.629Z,3.50
2018-11-13T13:00:52.380Z,3.07
2018-11-13T13:03:26.973Z,2.20
2018-11-13T13:06:01.471Z,2.07
2018-11-13T13:08:36.904Z,1.70
2018-11-13T13:11:12.300Z,1.40
2018-11-13T13:13:46.872Z,2.10
2018-11-13T13:16:23.124Z,1.90
2018-11-13T13:18:58.895Z,1.73
2018-11-13T13:21:33.819Z,1.60
2018-11-13T13:24:10.130Z,1.80
2018-11-13T13:26:46.014Z,2.73
2018-11-13T13:29:21.773Z,2.40
2018-11-13T13:31:57.259Z,2.00
2018-11-13T13:34:33.263Z,2.20
2018-11-13T13:37:08.044Z,1.33
2018-11-13T13:39:42.546Z,1.93
2018-11-13T13:42:19.375Z,1.43
2018-11-13T13:44:54.827Z,1.83
2018-11-13T13:47:29.363Z,1.60
2018-11-13T13:50:03.828Z,1.40
2018-11-13T13:52:38.956Z,1.30
2018-11-13T13:55:13.387Z,2.30
2018-11-13T13:57:47.943Z,1.17
2018-11-13T14:00:22.660Z,1.37
2018-11-13T14:02:56.635Z,1.13
2018-11-13T14:05:31.436Z,1.07
2018-11-13T14:08:06.604Z,1.00
2018-11-13T14:10:42.195Z,1.50
2018-11-13T14:13:16.499Z,1.07
2018-11-13T14:15:52.383Z,1.27
2018-11-13T14:18:28.074Z,1.20
2018-11-13T14:21:02.446Z,1.10
2018-11-13T14:23:37.483Z,1.33
2018-11-13T14:26:12.936Z,1.30
2018-11-13T14:28:47.491Z,1.40
2018-11-13T14:31:21.937Z,1.30
2018-11-13T14:33:56.845Z,1.30
2018-11-13T14:36:31.348Z,1.30
2018-11-13T14:39:08.615Z,1.43
2018-11-13T14:41:44.643Z,1.20
2018-11-13T14:44:21.051Z,1.17
2018-11-13T14:46:55.439Z,1.43
2018-11-13T14:49:30.188Z,1.27
2018-11-13T14:52:05.883Z,1.70
2018-11-13T14:54:42.015Z,1.00
2018-11-13T14:57:16.528Z,1.33
2018-11-13T14:59:50.948Z,1.50
2018-11-13T15:02:25.448Z,1.63
2018-11-13T15:04:59.951Z,1.30
2018-11-13T15:07:35.344Z,1.20
2018-11-13T15:10:52.985Z,1.07
2018-11-13T15:13:27.883Z,1.17
2018-11-13T15:16:11.276Z,1.10
2018-11-13T15:18:47.198Z,1.27
2018-11-13T15:21:21.484Z,1.40
2018-11-13T15:23:57.428Z,1.73
2018-11-13T15:26:33.047Z,1.30
2018-11-13T15:29:07.600Z,1.47
2018-11-13T15:31:42.533Z,1.70
2018-11-13T15:34:18.794Z,1.53
2018-11-13T15:36:53.679Z,1.83
2018-11-13T15:39:29.749Z,1.57
2018-11-13T15:42:07.696Z,1.57
2018-11-13T15:44:44.678Z,1.70
2018-11-13T15:47:22.930Z,1.40
2018-11-13T15:49:58.369Z,1.90
2018-11-13T15:52:35.884Z,2.20
2018-11-13T15:55:12.540Z,1.87
2018-11-13T15:57:48.043Z,2.10
2018-11-13T16:00:34.783Z,2.23
2018-11-13T16:03:14.172Z,2.13
2018-11-13T16:05:52.555Z,2.00
2018-11-13T16:08:27.334Z,2.40
2018-11-13T16:11:04.836Z,2.30
2018-11-13T16:13:43.400Z,2.33
2018-11-13T16:16:20.820Z,2.80
2018-11-13T16:18:58.117Z,2.13
2018-11-13T16:21:32.890Z,2.10
2018-11-13T16:24:11.504Z,2.63
2018-11-13T16:26:48.386Z,2.23
2018-11-13T16:29:23.683Z,3.20
2018-11-13T16:31:58.335Z,2.07
2018-11-13T16:34:35.108Z,2.60
2018-11-13T16:37:10.446Z,2.90
2018-11-13T16:39:44.940Z,2.73
2018-11-13T16:42:22.738Z,3.40
2018-11-13T16:44:59.253Z,3.90
2018-11-13T16:47:33.493Z,2.60
2018-11-13T16:50:12.947Z,2.90
2018-11-13T16:52:49.918Z,3.70
2018-11-13T16:55:30.560Z,4.33
2018-11-13T16:58:06.531Z,7.90
2018-11-13T17:00:43.691Z,6.40
2018-11-13T17:03:17.876Z,7.97
2018-11-13T17:05:53.869Z,5.83
2018-11-13T17:08:30.672Z,4.67
2018-11-13T17:11:07.924Z,6.23
2018-11-13T17:13:42.323Z,5.97
2018-11-13T17:16:19.812Z,4.50
2018-11-13T17:18:56.757Z,4.70
2018-11-13T17:21:31.760Z,4.40
2018-11-13T17:24:08.512Z,4.80
2018-11-13T17:26:45.387Z,5.13
2018-11-13T17:29:19.703Z,5.13
2018-11-13T17:31:54.567Z,7.00
2018-11-13T17:34:32.203Z,6.10
2018-11-13T17:37:06.998Z,5.70
2018-11-13T17:39:41.780Z,4.73
2018-11-13T17:42:21.705Z,3.93
2018-11-13T17:44:58.572Z,3.23
2018-11-13T17:47:33.457Z,4.10
2018-11-13T17:50:16.177Z,4.73
2018-11-13T17:52:54.512Z,4.33
2018-11-13T17:55:30.027Z,5.43
2018-11-13T17:58:07.283Z,4.90
2018-11-13T18:00:48.702Z,4.93
2018-11-13T18:03:22.983Z,5.40
2018-11-13T18:05:59.255Z,5.10
2018-11-13T18:08:35.144Z,4.57
2018-11-13T18:11:12.967Z,5.60
2018-11-13T18:13:49.864Z,3.47
2018-11-13T18:16:28.120Z,5.30
2018-11-13T18:19:06.179Z,3.47
2018-11-13T18:21:41.369Z,4.70
2018-11-13T18:24:17.934Z,4.30
2018-11-13T18:26:55.685Z,5.30
2018-11-13T18:29:30.138Z,4.57
2018-11-13T18:32:07.229Z,4.90
2018-11-13T18:34:44.884Z,4.97
2018-11-13T18:37:19.730Z,4.10
2018-11-13T18:39:54.044Z,5.33
2018-11-13T18:42:31.619Z,4.47
2018-11-13T18:45:11.464Z,5.07
2018-11-13T18:47:45.863Z,5.43
2018-11-13T18:50:30.384Z,5.40
2018-11-13T18:53:07.313Z,5.10
2018-11-13T18:55:42.332Z,5.37
2018-11-13T18:58:16.779Z,4.47
2018-11-13T19:00:51.957Z,5.10
2018-11-13T19:03:26.426Z,4.57
2018-11-13T19:06:00.875Z,5.47
2018-11-13T19:08:35.367Z,5.20
2018-11-13T19:11:13.188Z,5.20
2018-11-13T19:13:49.634Z,5.27
2018-11-13T19:16:26.399Z,4.67
2018-11-13T19:19:04.428Z,5.60
2018-11-13T19:21:39.240Z,6.10
2018-11-13T19:24:15.791Z,10.70
2018-11-13T19:26:53.619Z,7.60
2018-11-13T19:29:30.304Z,4.80
2018-11-13T19:32:04.691Z,7.27
2018-11-13T19:34:41.180Z,6.73
2018-11-13T19:37:15.833Z,6.30
2018-11-13T19:39:50.305Z,5.13
2018-11-13T19:42:26.752Z,6.00
2018-11-13T19:45:03.841Z,6.37
2018-11-13T19:47:39.842Z,6.70
2018-11-13T19:50:18.170Z,8.40
2018-11-13T19:52:55.500Z,6.10
2018-11-13T19:55:30.925Z,6.40
2018-11-13T19:58:05.628Z,4.77
2018-11-13T20:00:47.849Z,6.30
2018-11-13T20:03:23.010Z,4.93
2018-11-13T20:15:13.420Z,6.60
2018-11-13T20:17:50.581Z,5.47
2018-11-13T20:33:37.574Z,5.03
2018-11-13T20:36:14.012Z,5.40
2018-11-13T20:38:49.167Z,5.30
2018-11-13T20:41:26.767Z,5.20
2018-11-13T20:44:05.335Z,5.50
2018-11-13T20:46:40.043Z,5.30
2018-11-13T20:49:15.353Z,4.67
2018-11-13T20:51:51.965Z,5.70
2018-11-13T20:54:28.535Z,5.63
2018-11-13T20:57:03.559Z,5.00
2018-11-13T20:59:38.020Z,5.77
2018-11-13T21:02:13.273Z,5.17
2018-11-13T21:04:47.646Z,4.70
2018-11-13T21:07:22.595Z,5.10
2018-11-13T21:09:59.505Z,5.17
2018-11-13T21:12:34.090Z,5.37
2018-11-13T21:15:13.241Z,5.73
2018-11-13T21:17:49.867Z,5.77
2018-11-13T21:20:24.717Z,9.70
2018-11-13T21:23:06.191Z,8.83
2018-11-13T21:25:41.925Z,7.30
2018-11-13T21:28:17.661Z,6.30
2018-11-13T21:30:52.053Z,4.73
2018-11-13T21:33:26.509Z,5.13
2018-11-13T21:36:02.428Z,4.70
2018-11-13T21:38:36.951Z,5.30
2018-11-13T21:41:13.596Z,5.43
2018-11-13T21:43:49.082Z,4.90
2018-11-13T21:46:24.331Z,5.03
2018-11-13T21:48:58.731Z,4.63
2018-11-13T21:51:34.580Z,5.27
2018-11-13T21:54:09.710Z,5.57
2018-11-13T21:56:44.020Z,6.17
2018-11-13T21:59:18.831Z,5.83
2018-11-13T22:01:53.339Z,5.40
2018-11-13T22:04:28.549Z,5.83
2018-11-13T22:07:03.215Z,6.00
2018-11-13T22:09:39.949Z,5.20
2018-11-13T22:12:14.344Z,5.40
2018-11-13T22:14:49.345Z,5.47
2018-11-13T22:17:24.562Z,4.90
2018-11-13T22:19:59.569Z,4.77
2018-11-13T22:22:34.648Z,4.70
2018-11-13T22:25:12.795Z,4.67
2018-11-13T22:27:49.052Z,4.60
2018-11-13T22:30:25.103Z,5.67
2018-11-13T22:33:00.116Z,7.77
2018-11-13T22:35:35.640Z,5.20
2018-11-13T22:38:10.219Z,4.80
2018-11-13T22:40:45.827Z,4.33
2018-11-13T22:43:20.968Z,4.27
2018-11-13T22:45:56.103Z,4.80
2018-11-13T22:48:30.703Z,4.33
2018-11-13T22:51:05.998Z,4.50
2018-11-13T22:53:41.179Z,4.60
2018-11-13T22:56:15.570Z,4.20
2018-11-13T22:58:50.256Z,4.17
2018-11-13T23:01:24.613Z,4.40
2018-11-13T23:03:59.275Z,3.93
2018-11-13T23:06:34.419Z,4.30
2018-11-13T23:09:10.996Z,4.33
2018-11-13T23:11:46.083Z,3.70
2018-11-13T23:14:20.599Z,4.60
2018-11-13T23:16:55.991Z,5.03
2018-11-13T23:19:31.123Z,3.80
2018-11-13T23:22:05.932Z,4.57
2018-11-13T23:24:40.986Z,4.50
2018-11-13T23:27:16.111Z,4.30
2018-11-13T23:29:50.640Z,3.57
2018-11-13T23:32:25.291Z,5.20
2018-11-13T23:35:00.381Z,4.20
2018-11-13T23:37:34.616Z,4.30
2018-11-13T23:40:12.852Z,4.80
2018-11-13T23:42:48.129Z,5.33
2018-11-13T23:45:24.424Z,5.73
2018-11-13T23:47:58.912Z,5.90
2018-11-13T23:50:34.807Z,6.17
2018-11-13T23:53:09.839Z,6.27
2018-11-13T23:55:44.355Z,4.73
2018-11-13T23:58:19.320Z,5.97
